Time;durP1;ratioP1;P1;durP2;ratioP2;P2;SDS_P1;SDS_P2;PMS_P1;PMS_P2;Temp;Humidity;BMP_temperature;BMP_pressure;BME280_temperature;BME280_humidity;BME280_pressure;Samples;Min_cycle;Max_cycle;Signal;HPM_P1;HPM_P2
2021/04/07 00:02:42;;;;;;;1.35;0.55;;;20.10;39.40;;;;;;20862636;28;20036;-23
2021/04/07 00:12:43;;;;;;;1.40;0.40;;;20.00;39.30;;;;;;20848703;28;20049;-24
2021/04/07 00:22:44;;;;;;;2.17;0.50;;;19.90;39.00;;;;;;20866479;28;20403;-21
2021/04/07 00:32:44;;;;;;;2.83;0.65;;;19.90;39.00;;;;;;20826163;28;20037;-22
2021/04/07 00:42:50;;;;;;;0.95;0.35;;;19.90;38.70;;;;;;20850509;28;20033;-24
2021/04/07 00:52:51;;;;;;;1.35;0.50;;;19.90;38.60;;;;;;20879418;28;20045;-22
2021/04/07 01:02:54;;;;;;;3.05;0.55;;;19.70;38.50;;;;;;20877806;28;20104;-19
2021/04/07 01:12:55;;;;;;;2.00;0.30;;;19.70;38.40;;;;;;20872708;28;20029;-23
2021/04/07 01:23:01;;;;;;;2.17;0.52;;;19.70;38.30;;;;;;20865267;28;20028;-24
2021/04/07 01:33:02;;;;;;;2.22;0.50;;;19.60;38.10;;;;;;20847946;28;20033;-23
2021/04/07 01:43:02;;;;;;;1.85;1.10;;;19.50;38.00;;;;;;20859819;28;20033;-22
2021/04/07 01:53:03;;;;;;;4.22;0.60;;;19.60;38.00;;;;;;20833947;28;20037;-22
2021/04/07 02:03:05;;;;;;;3.03;0.80;;;19.50;37.90;;;;;;20841840;28;20069;-20
2021/04/07 02:13:05;;;;;;;1.95;0.50;;;19.40;37.70;;;;;;20839918;28;20033;-21
2021/04/07 02:23:06;;;;;;;3.80;0.70;;;19.40;37.70;;;;;;20858298;28;20541;-24
2021/04/07 02:33:07;;;;;;;2.83;0.63;;;19.30;37.70;;;;;;20853330;28;20086;-26
2021/04/07 02:43:08;;;;;;;2.95;0.98;;;19.30;37.70;;;;;;20854031;28;20025;-22
2021/04/07 02:53:10;;;;;;;3.75;1.05;;;19.30;37.70;;;;;;20854499;28;20036;-22
2021/04/07 03:03:10;;;;;;;3.45;0.80;;;19.30;37.50;;;;;;20845216;28;20036;-19
2021/04/07 03:13:11;;;;;;;2.25;0.60;;;19.20;37.50;;;;;;20871591;28;20506;-25
2021/04/07 03:23:11;;;;;;;3.42;0.80;;;19.20;37.50;;;;;;20880776;28;20037;-22
2021/04/07 03:33:12;;;;;;;3.30;0.70;;;18.90;37.20;;;;;;20936228;22;20064;-25
2021/04/07 03:43:17;;;;;;;3.33;0.87;;;19.20;37.30;;;;;;20916207;28;20272;-20
2021/04/07 03:53:18;;;;;;;2.38;0.93;;;19.10;37.20;;;;;;20914851;28;20634;-19
2021/04/07 04:03:21;;;;;;;2.00;0.50;;;19.10;37.80;;;;;;20915669;28;20113;-21
2021/04/07 04:13:22;;;;;;;1.65;0.77;;;19.10;37.80;;;;;;20915731;28;20044;-24
2021/04/07 04:23:22;;;;;;;2.03;0.40;;;19.20;37.80;;;;;;20911752;28;20064;-20
2021/04/07 04:33:23;;;;;;;2.67;0.70;;;19.70;37.20;;;;;;20907968;28;20037;-23
2021/04/07 04:43:23;;;;;;;1.35;0.60;;;20.40;36.10;;;;;;20907496;28;20025;-23
2021/04/07 04:53:24;;;;;;;1.73;0.40;;;21.20;35.20;;;;;;20875517;28;20033;-20
2021/04/07 05:03:26;;;;;;;1.80;0.35;;;21.80;34.20;;;;;;20882126;28;20132;-23
2021/04/07 05:13:26;;;;;;;2.60;0.55;;;22.50;33.60;;;;;;20908151;28;20056;-20
2021/04/07 05:23:27;;;;;;;0.80;0.30;;;22.40;33.60;;;;;;20851221;28;20025;-23
2021/04/07 05:33:30;;;;;;;2.65;0.73;;;22.10;34.30;;;;;;20864588;28;20033;-19
2021/04/07 05:43:31;;;;;;;3.28;0.65;;;22.00;34.30;;;;;;20908284;28;20064;-20
2021/04/07 05:53:32;;;;;;;8.27;0.90;;;22.30;34.00;;;;;;20894052;28;20487;-19
2021/04/07 06:03:33;;;;;;;7.63;2.75;;;22.50;33.90;;;;;;20893855;28;20582;-21
2021/04/07 06:13:33;;;;;;;8.43;2.28;;;22.70;34.10;;;;;;20891871;28;20036;-23
2021/04/07 06:23:34;;;;;;;14.60;2.75;;;22.90;33.80;;;;;;20877278;28;20025;-21
2021/04/07 06:33:37;;;;;;;10.35;2.65;;;23.20;33.50;;;;;;20856715;28;20123;-17
2021/04/07 06:43:37;;;;;;;14.23;2.58;;;23.10;33.30;;;;;;20891577;28;20550;-22
2021/04/07 06:53:39;;;;;;;10.63;4.05;;;23.50;33.40;;;;;;20910107;28;20072;-25
2021/04/07 07:03:39;;;;;;;9.27;1.73;;;23.40;33.30;;;;;;20909845;28;20033;-22
2021/04/07 07:13:40;;;;;;;10.65;3.10;;;23.50;33.00;;;;;;20896468;28;20037;-19
2021/04/07 07:23:44;;;;;;;9.68;1.70;;;23.30;33.20;;;;;;20910722;28;20029;-22
2021/04/07 07:33:45;;;;;;;5.65;1.45;;;23.10;33.50;;;;;;20909956;28;20040;-20
2021/04/07 07:43:46;;;;;;;6.22;1.80;;;23.20;33.50;;;;;;20909437;28;20096;-25
2021/04/07 07:53:49;;;;;;;4.85;1.50;;;23.20;33.60;;;;;;20908767;28;20025;-18
2021/04/07 08:03:50;;;;;;;10.23;1.67;;;23.30;33.60;;;;;;20911975;28;20029;-22
2021/04/07 08:13:52;;;;;;;3.67;1.00;;;23.30;33.50;;;;;;20915068;28;20025;-23
2021/04/07 08:23:56;;;;;;;3.58;0.85;;;23.30;33.60;;;;;;20916286;28;20561;-25
2021/04/07 08:33:59;;;;;;;4.68;0.90;;;23.00;33.90;;;;;;20905792;28;20044;-25
2021/04/07 08:44:03;;;;;;;3.47;1.02;;;23.10;33.90;;;;;;20904588;28;20061;-25
2021/04/07 08:54:04;;;;;;;2.60;0.80;;;23.00;34.00;;;;;;20905692;28;20029;-23
2021/04/07 09:04:10;;;;;;;1.80;0.70;;;23.20;33.80;;;;;;20903343;28;20112;-19
2021/04/07 09:14:13;;;;;;;4.07;0.80;;;23.10;34.00;;;;;;20906868;28;20483;-21
2021/04/07 09:24:17;;;;;;;7.03;0.77;;;23.10;33.90;;;;;;20912056;28;20040;-21
2021/04/07 09:34:18;;;;;;;3.80;1.45;;;23.10;34.10;;;;;;20902908;22;20048;-23
2021/04/07 09:44:19;;;;;;;2.50;0.65;;;22.90;34.40;;;;;;20880750;28;20041;-20
2021/04/07 09:54:25;;;;;;;1.77;0.70;;;22.90;34.30;;;;;;20871809;28;20032;-22
2021/04/07 10:04:27;;;;;;;3.05;0.85;;;22.80;34.60;;;;;;20896740;28;20464;-19
2021/04/07 10:14:28;;;;;;;1.38;0.50;;;22.90;34.50;;;;;;20894235;28;20028;-19
2021/04/07 10:24:30;;;;;;;1.77;0.50;;;22.80;34.60;;;;;;20910674;28;20515;-23
2021/04/07 10:34:34;;;;;;;2.03;0.50;;;22.90;34.40;;;;;;20924386;28;20094;-24
2021/04/07 10:44:35;;;;;;;1.23;0.35;;;22.90;34.70;;;;;;20895256;28;20037;-21
2021/04/07 10:54:36;;;;;;;3.85;0.45;;;22.90;34.50;;;;;;20893982;28;20551;-21
2021/04/07 11:04:36;;;;;;;1.15;0.40;;;22.70;34.70;;;;;;20887148;28;20553;-22
2021/04/07 11:14:39;;;;;;;1.83;0.30;;;22.90;34.60;;;;;;20892895;28;20199;-23
2021/04/07 11:24:39;;;;;;;0.80;0.30;;;22.90;34.70;;;;;;20893031;28;20032;-22
2021/04/07 11:34:56;;;;;;;1.50;0.47;;;22.90;34.70;;;;;;20903712;28;20045;-22
2021/04/07 11:44:58;;;;;;;2.63;0.45;;;22.50;35.10;;;;;;20895619;28;20022;-22
2021/04/07 11:54:58;;;;;;;1.02;0.32;;;22.30;35.40;;;;;;20889909;28;20037;-21
2021/04/07 12:04:59;;;;;;;1.23;0.50;;;22.00;36.30;;;;;;20884161;28;20091;-23
2021/04/07 12:14:59;;;;;;;0.75;0.38;;;21.80;36.00;;;;;;20888887;28;20026;-22
2021/04/07 12:25:00;;;;;;;1.33;0.70;;;21.70;36.40;;;;;;20890195;28;20037;-21
2021/04/07 12:35:01;;;;;;;1.30;0.52;;;21.50;36.70;;;;;;20887298;28;20044;-22
2021/04/07 12:45:04;;;;;;;2.78;0.40;;;21.30;37.00;;;;;;20879981;28;20033;-21
2021/04/07 12:55:05;;;;;;;2.33;0.50;;;21.10;37.80;;;;;;20854753;28;20032;-23
2021/04/07 13:05:07;;;;;;;1.65;0.70;;;21.00;38.50;;;;;;20866264;28;20075;-23
2021/04/07 13:15:08;;;;;;;3.42;0.60;;;21.00;38.90;;;;;;20880976;28;20057;-22
2021/04/07 13:25:09;;;;;;;3.38;0.55;;;20.90;39.00;;;;;;20831063;28;20506;-22
2021/04/07 13:35:21;;;;;;;9.77;2.05;;;20.80;39.30;;;;;;20909936;28;20021;-23
2021/04/07 13:45:27;;;;;;;4.05;0.50;;;20.70;39.40;;;;;;20886429;28;20049;-19
2021/04/07 13:55:32;;;;;;;0.98;0.45;;;20.70;39.60;;;;;;20864024;28;20072;-19
2021/04/07 14:05:33;;;;;;;4.85;0.50;;;20.90;39.70;;;;;;20880514;28;20114;-20
2021/04/07 14:15:35;;;;;;;5.45;2.38;;;20.60;40.00;;;;;;20893268;28;20025;-19
2021/04/07 14:25:36;;;;;;;4.10;0.55;;;20.60;40.20;;;;;;20903866;28;20017;-23
2021/04/07 14:35:36;;;;;;;3.22;0.70;;;20.60;40.40;;;;;;20829098;28;20037;-20
2021/04/07 14:45:40;;;;;;;1.70;0.60;;;20.60;40.40;;;;;;20878651;28;20483;-23
2021/04/07 14:55:41;;;;;;;2.88;0.43;;;20.90;39.70;;;;;;20836862;28;20056;-21
2021/04/07 15:05:41;;;;;;;1.50;0.40;;;21.40;38.60;;;;;;20816092;28;20018;-19
2021/04/07 15:15:42;;;;;;;4.43;1.25;;;22.00;37.60;;;;;;20847004;28;20111;-18
2021/04/07 15:25:52;;;;;;;2.28;0.40;;;22.60;36.60;;;;;;20878597;28;20030;-24
2021/04/07 15:35:52;;;;;;;2.65;0.52;;;23.10;35.90;;;;;;20919446;22;20093;-22
2021/04/07 15:45:54;;;;;;;2.47;0.70;;;23.70;35.40;;;;;;20887696;28;20114;-22
2021/04/07 15:55:56;;;;;;;2.33;0.70;;;23.70;34.60;;;;;;20911650;28;20016;-22
2021/04/07 16:05:57;;;;;;;4.18;1.00;;;23.60;34.90;;;;;;20881719;28;20056;-19
2021/04/07 16:15:57;;;;;;;8.38;1.70;;;23.40;35.20;;;;;;20873450;28;20049;-21
2021/04/07 16:25:58;;;;;;;7.28;1.27;;;23.40;35.70;;;;;;20914837;28;20033;-22
2021/04/07 16:35:58;;;;;;;12.80;2.63;;;23.30;35.80;;;;;;20884564;28;20047;-22
2021/04/07 16:45:59;;;;;;;12.13;3.53;;;23.20;35.90;;;;;;20901655;28;20087;-22
2021/04/07 16:56:02;;;;;;;11.98;4.88;;;23.30;35.90;;;;;;20925540;28;20495;-22
2021/04/07 17:06:03;;;;;;;8.20;2.97;;;23.30;35.80;;;;;;20893355;28;20028;-24
2021/04/07 17:16:04;;;;;;;14.32;3.70;;;23.40;35.70;;;;;;20909460;28;20108;-23
2021/04/07 17:26:04;;;;;;;9.18;2.63;;;23.40;35.60;;;;;;20906985;28;20387;-20
2021/04/07 17:36:05;;;;;;;7.28;2.40;;;23.30;35.60;;;;;;20907491;28;20033;-21
2021/04/07 17:46:13;;;;;;;8.45;2.50;;;23.20;35.80;;;;;;20879423;28;20037;-33
2021/04/07 17:56:14;;;;;;;12.77;3.70;;;23.20;35.60;;;;;;20891470;28;20029;-22
2021/04/07 18:06:15;;;;;;;14.00;2.80;;;23.10;36.00;;;;;;20881905;28;20395;-22
2021/04/07 18:16:15;;;;;;;7.78;2.28;;;23.20;35.80;;;;;;20919010;28;20048;-23
2021/04/07 18:26:17;;;;;;;7.47;1.90;;;23.40;35.50;;;;;;20905229;28;20028;-23
2021/04/07 18:36:17;;;;;;;9.77;2.35;;;23.30;35.80;;;;;;20907971;28;20040;-22
2021/04/07 18:46:18;;;;;;;7.25;1.75;;;23.50;35.60;;;;;;20918662;28;20032;-23
2021/04/07 18:56:18;;;;;;;7.50;1.77;;;23.30;35.90;;;;;;20922549;28;20116;-22
2021/04/07 19:06:19;;;;;;;7.68;1.75;;;23.20;35.90;;;;;;20920131;28;20029;-22
2021/04/07 19:16:20;;;;;;;4.32;1.38;;;23.30;35.70;;;;;;20921844;28;20700;-22
2021/04/07 19:26:21;;;;;;;5.80;1.53;;;23.10;35.70;;;;;;20913971;28;20087;-22
2021/04/07 19:36:21;;;;;;;6.85;2.10;;;23.30;35.50;;;;;;20911275;28;20487;-22
2021/04/07 19:46:27;;;;;;;5.00;2.58;;;23.10;36.00;;;;;;20863593;28;20394;-20
2021/04/07 19:56:27;;;;;;;5.68;1.42;;;23.30;35.80;;;;;;20859983;28;20036;-19
2021/04/07 20:06:28;;;;;;;6.43;1.60;;;23.30;36.00;;;;;;20863821;28;20029;-21
2021/04/07 20:16:28;;;;;;;4.65;1.40;;;23.40;35.80;;;;;;20848705;28;20056;-21
2021/04/07 20:26:29;;;;;;;3.08;0.85;;;23.50;36.00;;;;;;20844004;28;20029;-22
2021/04/07 20:36:29;;;;;;;2.75;1.05;;;23.30;36.30;;;;;;20877590;28;20037;-23
2021/04/07 20:46:30;;;;;;;3.93;0.73;;;23.30;36.20;;;;;;20907966;28;20036;-21
2021/04/07 20:56:31;;;;;;;2.25;0.60;;;23.10;36.60;;;;;;20907253;28;20475;-20
2021/04/07 21:06:31;;;;;;;2.78;0.82;;;23.20;36.60;;;;;;20869327;28;20036;-20
2021/04/07 21:16:32;;;;;;;2.33;0.80;;;23.10;36.90;;;;;;20840303;28;20040;-19
2021/04/07 21:26:32;;;;;;;2.88;0.70;;;23.10;36.70;;;;;;20824629;28;20028;-20
2021/04/07 21:36:33;;;;;;;3.03;0.63;;;23.20;36.60;;;;;;20860709;28;20083;-22
2021/04/07 21:46:34;;;;;;;3.47;0.75;;;23.10;36.60;;;;;;20868997;28;20028;-23
2021/04/07 21:56:34;;;;;;;4.25;0.90;;;22.80;36.60;;;;;;20892306;28;20032;-21
2021/04/07 22:06:35;;;;;;;5.00;0.82;;;22.50;36.80;;;;;;20841000;28;20037;-19
2021/04/07 22:16:36;;;;;;;3.05;0.63;;;22.40;37.00;;;;;;20823767;28;20052;-19
2021/04/07 22:26:37;;;;;;;4.13;0.90;;;22.10;37.30;;;;;;20826685;28;20029;-23
2021/04/07 22:36:42;;;;;;;6.55;1.20;;;21.90;37.50;;;;;;20895233;28;20040;-18
2021/04/07 22:46:46;;;;;;;7.00;1.08;;;21.60;38.00;;;;;;20901893;28;20029;-21
2021/04/07 22:56:48;;;;;;;3.13;0.88;;;21.40;38.30;;;;;;20905335;28;20040;-22
2021/04/07 23:06:48;;;;;;;2.65;1.25;;;21.30;38.40;;;;;;20905347;28;20467;-20
2021/04/07 23:16:49;;;;;;;5.72;1.20;;;21.10;38.10;;;;;;20900759;28;20104;-24
2021/04/07 23:26:49;;;;;;;3.10;0.73;;;21.00;38.00;;;;;;20919625;28;20025;-24
2021/04/07 23:36:50;;;;;;;2.72;0.70;;;20.90;37.90;;;;;;20938217;28;20097;-23
2021/04/07 23:46:51;;;;;;;6.03;1.45;;;20.80;38.00;;;;;;20921448;28;20036;-21
2021/04/07 23:56:51;;;;;;;3.15;1.00;;;20.60;38.00;;;;;;20913255;28;20044;-23
